sensor_id;sensor_type;location;lat;lon;timestamp;P1;durP1;ratioP1;P2;durP2;ratioP2
10170;SDS011;5127;50.922;6.988;2022-12-17T00:01:19;34.43;;;15.60;;
10170;SDS011;5127;50.922;6.988;2022-12-17T00:04:03;45.90;;;15.70;;
10170;SDS011;5127;50.922;6.988;2022-12-17T00:06:48;36.83;;;15.23;;
10170;SDS011;5127;50.922;6.988;2022-12-17T00:09:33;36.97;;;15.70;;
10170;SDS011;5127;50.922;6.988;2022-12-17T00:12:18;42.57;;;15.43;;
10170;SDS011;5127;50.922;6.988;2022-12-17T00:15:04;36.80;;;15.37;;
10170;SDS011;5127;50.922;6.988;2022-12-17T00:18:02;38.50;;;16.47;;
10170;SDS011;5127;50.922;6.988;2022-12-17T00:20:51;47.37;;;18.80;;
10170;SDS011;5127;50.922;6.988;2022-12-17T00:23:36;43.77;;;18.10;;
10170;SDS011;5127;50.922;6.988;2022-12-17T00:26:23;38.77;;;14.93;;
10170;SDS011;5127;50.922;6.988;2022-12-17T00:29:08;35.60;;;14.97;;
10170;SDS011;5127;50.922;6.988;2022-12-17T00:31:54;42.80;;;17.27;;
10170;SDS011;5127;50.922;6.988;2022-12-17T00:34:41;51.53;;;19.70;;
10170;SDS011;5127;50.922;6.988;2022-12-17T00:37:25;36.83;;;15.87;;
10170;SDS011;5127;50.922;6.988;2022-12-17T00:40:10;41.20;;;16.33;;
10170;SDS011;5127;50.922;6.988;2022-12-17T00:42:59;41.07;;;16.13;;
10170;SDS011;5127;50.922;6.988;2022-12-17T00:45:47;42.40;;;16.73;;
10170;SDS011;5127;50.922;6.988;2022-12-17T00:48:33;45.57;;;18.20;;
10170;SDS011;5127;50.922;6.988;2022-12-17T00:51:18;44.63;;;17.57;;
10170;SDS011;5127;50.922;6.988;2022-12-17T00:54:03;44.20;;;16.10;;
10170;SDS011;5127;50.922;6.988;2022-12-17T00:56:48;37.87;;;15.03;;
10170;SDS011;5127;50.922;6.988;2022-12-17T00:59:33;35.07;;;14.97;;
10170;SDS011;5127;50.922;6.988;2022-12-17T01:02:19;44.37;;;16.87;;
10170;SDS011;5127;50.922;6.988;2022-12-17T01:05:20;38.97;;;17.77;;
10170;SDS011;5127;50.922;6.988;2022-12-17T01:08:07;36.87;;;15.70;;
10170;SDS011;5127;50.922;6.988;2022-12-17T01:10:56;40.50;;;16.23;;
10170;SDS011;5127;50.922;6.988;2022-12-17T01:13:42;46.90;;;19.47;;
10170;SDS011;5127;50.922;6.988;2022-12-17T01:16:27;51.53;;;20.50;;
10170;SDS011;5127;50.922;6.988;2022-12-17T01:19:12;44.87;;;18.07;;
10170;SDS011;5127;50.922;6.988;2022-12-17T01:21:58;40.50;;;17.63;;
10170;SDS011;5127;50.922;6.988;2022-12-17T01:24:43;40.97;;;16.87;;
10170;SDS011;5127;50.922;6.988;2022-12-17T01:27:28;41.43;;;16.63;;
10170;SDS011;5127;50.922;6.988;2022-12-17T01:30:13;38.13;;;16.70;;
10170;SDS011;5127;50.922;6.988;2022-12-17T01:33:00;34.93;;;14.90;;
10170;SDS011;5127;50.922;6.988;2022-12-17T01:35:46;32.03;;;14.50;;
10170;SDS011;5127;50.922;6.988;2022-12-17T01:38:32;35.77;;;16.40;;
10170;SDS011;5127;50.922;6.988;2022-12-17T01:41:18;32.37;;;14.20;;
10170;SDS011;5127;50.922;6.988;2022-12-17T01:47:21;40.50;;;17.23;;
10170;SDS011;5127;50.922;6.988;2022-12-17T01:50:07;35.23;;;16.20;;
10170;SDS011;5127;50.922;6.988;2022-12-17T01:52:53;35.93;;;15.83;;
10170;SDS011;5127;50.922;6.988;2022-12-17T01:55:44;42.83;;;17.00;;
10170;SDS011;5127;50.922;6.988;2022-12-17T01:58:28;35.03;;;16.50;;
10170;SDS011;5127;50.922;6.988;2022-12-17T02:01:14;35.27;;;15.80;;
10170;SDS011;5127;50.922;6.988;2022-12-17T02:04:04;30.40;;;14.20;;
10170;SDS011;5127;50.922;6.988;2022-12-17T02:06:51;38.33;;;15.87;;
10170;SDS011;5127;50.922;6.988;2022-12-17T02:09:45;29.67;;;14.67;;
10170;SDS011;5127;50.922;6.988;2022-12-17T02:12:38;37.00;;;15.23;;
10170;SDS011;5127;50.922;6.988;2022-12-17T02:15:30;33.07;;;14.47;;
10170;SDS011;5127;50.922;6.988;2022-12-17T02:18:21;34.80;;;15.63;;
10170;SDS011;5127;50.922;6.988;2022-12-17T02:21:08;31.90;;;14.77;;
10170;SDS011;5127;50.922;6.988;2022-12-17T02:23:55;32.53;;;15.13;;
10170;SDS011;5127;50.922;6.988;2022-12-17T02:27:03;30.20;;;14.47;;
10170;SDS011;5127;50.922;6.988;2022-12-17T02:29:52;35.47;;;17.07;;
10170;SDS011;5127;50.922;6.988;2022-12-17T02:32:42;33.33;;;14.97;;
10170;SDS011;5127;50.922;6.988;2022-12-17T02:35:30;38.37;;;16.07;;
10170;SDS011;5127;50.922;6.988;2022-12-17T02:38:19;28.63;;;15.27;;
10170;SDS011;5127;50.922;6.988;2022-12-17T02:41:05;32.10;;;15.50;;
10170;SDS011;5127;50.922;6.988;2022-12-17T02:43:54;32.17;;;15.17;;
10170;SDS011;5127;50.922;6.988;2022-12-17T02:46:40;35.17;;;17.10;;
10170;SDS011;5127;50.922;6.988;2022-12-17T02:49:26;31.63;;;15.53;;
10170;SDS011;5127;50.922;6.988;2022-12-17T02:52:11;31.20;;;15.03;;
10170;SDS011;5127;50.922;6.988;2022-12-17T02:54:58;30.50;;;15.37;;
10170;SDS011;5127;50.922;6.988;2022-12-17T02:57:43;32.87;;;15.23;;
10170;SDS011;5127;50.922;6.988;2022-12-17T03:00:29;27.27;;;14.40;;
10170;SDS011;5127;50.922;6.988;2022-12-17T03:03:14;30.10;;;13.77;;
10170;SDS011;5127;50.922;6.988;2022-12-17T03:05:59;31.03;;;15.27;;
10170;SDS011;5127;50.922;6.988;2022-12-17T03:08:43;30.27;;;13.83;;
10170;SDS011;5127;50.922;6.988;2022-12-17T03:11:34;35.67;;;16.43;;
10170;SDS011;5127;50.922;6.988;2022-12-17T03:14:19;37.23;;;17.20;;
10170;SDS011;5127;50.922;6.988;2022-12-17T03:17:05;35.90;;;16.33;;
10170;SDS011;5127;50.922;6.988;2022-12-17T03:19:50;35.77;;;17.07;;
10170;SDS011;5127;50.922;6.988;2022-12-17T03:22:35;39.73;;;15.93;;
10170;SDS011;5127;50.922;6.988;2022-12-17T03:25:31;33.03;;;15.10;;
10170;SDS011;5127;50.922;6.988;2022-12-17T03:28:16;34.17;;;16.87;;
10170;SDS011;5127;50.922;6.988;2022-12-17T03:31:01;31.83;;;14.90;;
10170;SDS011;5127;50.922;6.988;2022-12-17T03:33:47;30.77;;;14.93;;
10170;SDS011;5127;50.922;6.988;2022-12-17T03:36:31;31.60;;;15.33;;
10170;SDS011;5127;50.922;6.988;2022-12-17T03:39:16;36.23;;;15.77;;
10170;SDS011;5127;50.922;6.988;2022-12-17T03:42:01;29.23;;;13.97;;
10170;SDS011;5127;50.922;6.988;2022-12-17T03:44:46;32.03;;;14.70;;
10170;SDS011;5127;50.922;6.988;2022-12-17T03:47:31;31.90;;;14.80;;
10170;SDS011;5127;50.922;6.988;2022-12-17T03:50:17;27.00;;;12.90;;
10170;SDS011;5127;50.922;6.988;2022-12-17T03:53:03;26.20;;;12.77;;
10170;SDS011;5127;50.922;6.988;2022-12-17T03:55:47;30.53;;;14.30;;
10170;SDS011;5127;50.922;6.988;2022-12-17T03:58:32;27.87;;;13.50;;
10170;SDS011;5127;50.922;6.988;2022-12-17T04:01:17;30.47;;;13.73;;
10170;SDS011;5127;50.922;6.988;2022-12-17T04:04:04;26.83;;;14.83;;
10170;SDS011;5127;50.922;6.988;2022-12-17T04:06:50;25.40;;;12.90;;
10170;SDS011;5127;50.922;6.988;2022-12-17T04:09:35;27.27;;;14.00;;
10170;SDS011;5127;50.922;6.988;2022-12-17T04:12:19;34.03;;;14.73;;
10170;SDS011;5127;50.922;6.988;2022-12-17T04:15:05;30.50;;;14.23;;
10170;SDS011;5127;50.922;6.988;2022-12-17T04:17:51;28.77;;;12.90;;
10170;SDS011;5127;50.922;6.988;2022-12-17T04:20:36;27.70;;;12.90;;
10170;SDS011;5127;50.922;6.988;2022-12-17T04:23:22;28.60;;;13.37;;
10170;SDS011;5127;50.922;6.988;2022-12-17T04:26:07;24.50;;;13.03;;
10170;SDS011;5127;50.922;6.988;2022-12-17T04:28:52;25.20;;;13.07;;
10170;SDS011;5127;50.922;6.988;2022-12-17T04:31:37;28.63;;;13.53;;
10170;SDS011;5127;50.922;6.988;2022-12-17T04:34:27;29.87;;;14.27;;
10170;SDS011;5127;50.922;6.988;2022-12-17T04:37:13;28.50;;;13.50;;
10170;SDS011;5127;50.922;6.988;2022-12-17T04:39:59;26.00;;;13.27;;
10170;SDS011;5127;50.922;6.988;2022-12-17T04:42:44;28.00;;;13.43;;
10170;SDS011;5127;50.922;6.988;2022-12-17T04:45:29;30.93;;;13.13;;
10170;SDS011;5127;50.922;6.988;2022-12-17T04:48:13;27.60;;;12.87;;
10170;SDS011;5127;50.922;6.988;2022-12-17T04:50:58;30.20;;;14.20;;
10170;SDS011;5127;50.922;6.988;2022-12-17T04:53:43;31.50;;;14.83;;
10170;SDS011;5127;50.922;6.988;2022-12-17T04:56:29;27.83;;;13.23;;
10170;SDS011;5127;50.922;6.988;2022-12-17T04:59:17;30.63;;;14.03;;
10170;SDS011;5127;50.922;6.988;2022-12-17T05:02:02;29.67;;;13.67;;
10170;SDS011;5127;50.922;6.988;2022-12-17T05:04:49;29.10;;;13.87;;
10170;SDS011;5127;50.922;6.988;2022-12-17T05:07:34;28.37;;;13.60;;
10170;SDS011;5127;50.922;6.988;2022-12-17T05:10:18;27.17;;;13.93;;
10170;SDS011;5127;50.922;6.988;2022-12-17T05:13:04;28.63;;;13.43;;
10170;SDS011;5127;50.922;6.988;2022-12-17T05:15:53;29.50;;;14.60;;
10170;SDS011;5127;50.922;6.988;2022-12-17T05:18:39;26.17;;;13.63;;
10170;SDS011;5127;50.922;6.988;2022-12-17T05:21:24;28.83;;;14.23;;
10170;SDS011;5127;50.922;6.988;2022-12-17T05:24:08;28.90;;;13.30;;
10170;SDS011;5127;50.922;6.988;2022-12-17T05:26:53;25.57;;;13.57;;
10170;SDS011;5127;50.922;6.988;2022-12-17T05:29:39;27.37;;;13.70;;
10170;SDS011;5127;50.922;6.988;2022-12-17T05:32:24;26.60;;;14.80;;
10170;SDS011;5127;50.922;6.988;2022-12-17T05:35:09;27.43;;;14.63;;
10170;SDS011;5127;50.922;6.988;2022-12-17T05:37:54;31.30;;;14.60;;
10170;SDS011;5127;50.922;6.988;2022-12-17T05:40:46;30.70;;;15.20;;
10170;SDS011;5127;50.922;6.988;2022-12-17T05:43:30;31.73;;;14.43;;
10170;SDS011;5127;50.922;6.988;2022-12-17T05:46:17;30.20;;;14.43;;
10170;SDS011;5127;50.922;6.988;2022-12-17T05:49:02;28.80;;;14.63;;
10170;SDS011;5127;50.922;6.988;2022-12-17T05:51:47;28.43;;;14.67;;
10170;SDS011;5127;50.922;6.988;2022-12-17T05:54:32;30.70;;;14.97;;
10170;SDS011;5127;50.922;6.988;2022-12-17T05:57:17;29.10;;;15.03;;
10170;SDS011;5127;50.922;6.988;2022-12-17T06:00:01;32.07;;;16.17;;
10170;SDS011;5127;50.922;6.988;2022-12-17T06:02:47;34.60;;;16.50;;
10170;SDS011;5127;50.922;6.988;2022-12-17T06:05:32;33.33;;;16.23;;
10170;SDS011;5127;50.922;6.988;2022-12-17T06:08:17;31.77;;;16.07;;
10170;SDS011;5127;50.922;6.988;2022-12-17T06:11:02;33.20;;;16.30;;
10170;SDS011;5127;50.922;6.988;2022-12-17T06:13:47;33.30;;;15.83;;
10170;SDS011;5127;50.922;6.988;2022-12-17T06:16:34;32.93;;;17.07;;
10170;SDS011;5127;50.922;6.988;2022-12-17T06:19:20;32.87;;;15.00;;
10170;SDS011;5127;50.922;6.988;2022-12-17T06:22:04;34.57;;;15.77;;
10170;SDS011;5127;50.922;6.988;2022-12-17T06:24:49;30.90;;;14.40;;
10170;SDS011;5127;50.922;6.988;2022-12-17T06:27:34;30.33;;;15.53;;
10170;SDS011;5127;50.922;6.988;2022-12-17T06:30:19;32.17;;;15.73;;
10170;SDS011;5127;50.922;6.988;2022-12-17T06:33:05;31.80;;;16.10;;
10170;SDS011;5127;50.922;6.988;2022-12-17T06:35:52;34.20;;;14.57;;
10170;SDS011;5127;50.922;6.988;2022-12-17T06:38:38;32.07;;;15.90;;
10170;SDS011;5127;50.922;6.988;2022-12-17T06:41:22;30.97;;;15.27;;
10170;SDS011;5127;50.922;6.988;2022-12-17T06:44:07;30.03;;;15.93;;
10170;SDS011;5127;50.922;6.988;2022-12-17T06:46:52;27.90;;;14.37;;
10170;SDS011;5127;50.922;6.988;2022-12-17T06:49:37;32.90;;;15.67;;
10170;SDS011;5127;50.922;6.988;2022-12-17T06:52:23;32.53;;;14.97;;
10170;SDS011;5127;50.922;6.988;2022-12-17T06:55:08;35.10;;;14.93;;
10170;SDS011;5127;50.922;6.988;2022-12-17T06:57:56;33.53;;;16.03;;
10170;SDS011;5127;50.922;6.988;2022-12-17T07:00:42;33.90;;;15.80;;
10170;SDS011;5127;50.922;6.988;2022-12-17T07:03:27;32.43;;;15.07;;
10170;SDS011;5127;50.922;6.988;2022-12-17T07:06:19;26.93;;;14.20;;
10170;SDS011;5127;50.922;6.988;2022-12-17T07:09:06;29.17;;;13.57;;
10170;SDS011;5127;50.922;6.988;2022-12-17T07:11:50;30.73;;;14.33;;
10170;SDS011;5127;50.922;6.988;2022-12-17T07:14:35;26.60;;;13.90;;
10170;SDS011;5127;50.922;6.988;2022-12-17T07:17:20;28.37;;;12.83;;
10170;SDS011;5127;50.922;6.988;2022-12-17T07:20:05;25.40;;;13.37;;
10170;SDS011;5127;50.922;6.988;2022-12-17T07:22:52;25.83;;;12.80;;
10170;SDS011;5127;50.922;6.988;2022-12-17T07:25:39;27.70;;;13.93;;
10170;SDS011;5127;50.922;6.988;2022-12-17T07:28:25;27.33;;;13.10;;
10170;SDS011;5127;50.922;6.988;2022-12-17T07:31:09;27.10;;;14.43;;
10170;SDS011;5127;50.922;6.988;2022-12-17T07:33:54;26.20;;;13.13;;
10170;SDS011;5127;50.922;6.988;2022-12-17T07:36:41;32.20;;;14.77;;
10170;SDS011;5127;50.922;6.988;2022-12-17T07:39:25;24.97;;;12.53;;
10170;SDS011;5127;50.922;6.988;2022-12-17T07:42:12;30.63;;;13.43;;
10170;SDS011;5127;50.922;6.988;2022-12-17T07:44:57;22.17;;;11.80;;
10170;SDS011;5127;50.922;6.988;2022-12-17T07:47:41;25.23;;;12.67;;
10170;SDS011;5127;50.922;6.988;2022-12-17T07:50:26;24.00;;;12.47;;
10170;SDS011;5127;50.922;6.988;2022-12-17T07:53:11;29.60;;;13.77;;
10170;SDS011;5127;50.922;6.988;2022-12-17T07:55:56;26.43;;;12.67;;
10170;SDS011;5127;50.922;6.988;2022-12-17T07:58:43;25.37;;;12.77;;
10170;SDS011;5127;50.922;6.988;2022-12-17T08:01:28;27.50;;;13.17;;
10170;SDS011;5127;50.922;6.988;2022-12-17T08:04:12;28.80;;;13.67;;
10170;SDS011;5127;50.922;6.988;2022-12-17T08:06:57;25.87;;;12.70;;
10170;SDS011;5127;50.922;6.988;2022-12-17T08:09:42;27.63;;;13.30;;
10170;SDS011;5127;50.922;6.988;2022-12-17T08:12:28;24.60;;;12.00;;
10170;SDS011;5127;50.922;6.988;2022-12-17T08:15:14;25.73;;;12.73;;
10170;SDS011;5127;50.922;6.988;2022-12-17T08:18:00;28.37;;;12.60;;
10170;SDS011;5127;50.922;6.988;2022-12-17T08:20:45;23.77;;;11.90;;
10170;SDS011;5127;50.922;6.988;2022-12-17T08:23:30;24.50;;;12.13;;
10170;SDS011;5127;50.922;6.988;2022-12-17T08:26:15;23.63;;;11.57;;
10170;SDS011;5127;50.922;6.988;2022-12-17T08:29:00;23.10;;;12.00;;
10170;SDS011;5127;50.922;6.988;2022-12-17T08:31:46;20.03;;;11.63;;
10170;SDS011;5127;50.922;6.988;2022-12-17T08:34:30;25.93;;;12.20;;
10170;SDS011;5127;50.922;6.988;2022-12-17T08:37:16;22.77;;;11.53;;
10170;SDS011;5127;50.922;6.988;2022-12-17T08:40:00;21.53;;;11.00;;
10170;SDS011;5127;50.922;6.988;2022-12-17T08:42:56;21.33;;;11.17;;
10170;SDS011;5127;50.922;6.988;2022-12-17T08:45:44;19.07;;;11.00;;
10170;SDS011;5127;50.922;6.988;2022-12-17T08:48:32;21.30;;;12.30;;
10170;SDS011;5127;50.922;6.988;2022-12-17T08:51:16;19.87;;;11.17;;
10170;SDS011;5127;50.922;6.988;2022-12-17T08:54:01;19.40;;;10.57;;
10170;SDS011;5127;50.922;6.988;2022-12-17T08:56:46;20.27;;;10.47;;
10170;SDS011;5127;50.922;6.988;2022-12-17T08:59:31;18.57;;;9.97;;
10170;SDS011;5127;50.922;6.988;2022-12-17T09:02:17;19.00;;;10.30;;
10170;SDS011;5127;50.922;6.988;2022-12-17T09:05:03;18.13;;;9.53;;
10170;SDS011;5127;50.922;6.988;2022-12-17T09:07:49;16.17;;;9.60;;
10170;SDS011;5127;50.922;6.988;2022-12-17T09:10:42;18.17;;;10.20;;
10170;SDS011;5127;50.922;6.988;2022-12-17T09:13:26;18.00;;;10.40;;
10170;SDS011;5127;50.922;6.988;2022-12-17T09:16:11;16.30;;;10.33;;
10170;SDS011;5127;50.922;6.988;2022-12-17T09:18:56;16.43;;;10.33;;
10170;SDS011;5127;50.922;6.988;2022-12-17T09:21:43;17.43;;;9.97;;
10170;SDS011;5127;50.922;6.988;2022-12-17T09:24:28;19.10;;;10.00;;
10170;SDS011;5127;50.922;6.988;2022-12-17T09:27:13;16.67;;;9.93;;
10170;SDS011;5127;50.922;6.988;2022-12-17T09:29:58;14.37;;;9.13;;
10170;SDS011;5127;50.922;6.988;2022-12-17T09:32:43;14.80;;;8.90;;
10170;SDS011;5127;50.922;6.988;2022-12-17T09:35:27;15.17;;;9.00;;
10170;SDS011;5127;50.922;6.988;2022-12-17T09:38:13;17.43;;;9.67;;
10170;SDS011;5127;50.922;6.988;2022-12-17T09:40:58;16.33;;;8.93;;
10170;SDS011;5127;50.922;6.988;2022-12-17T09:43:49;14.93;;;9.23;;
10170;SDS011;5127;50.922;6.988;2022-12-17T09:46:41;18.20;;;10.37;;
10170;SDS011;5127;50.922;6.988;2022-12-17T09:49:32;15.20;;;9.63;;
10170;SDS011;5127;50.922;6.988;2022-12-17T09:52:18;15.87;;;9.40;;
10170;SDS011;5127;50.922;6.988;2022-12-17T09:55:15;17.27;;;9.23;;
10170;SDS011;5127;50.922;6.988;2022-12-17T09:58:04;16.80;;;9.77;;
10170;SDS011;5127;50.922;6.988;2022-12-17T10:00:56;15.13;;;9.23;;
10170;SDS011;5127;50.922;6.988;2022-12-17T10:03:40;15.93;;;9.53;;
10170;SDS011;5127;50.922;6.988;2022-12-17T10:06:28;14.63;;;9.53;;
10170;SDS011;5127;50.922;6.988;2022-12-17T10:09:16;14.23;;;9.23;;
10170;SDS011;5127;50.922;6.988;2022-12-17T10:12:10;17.03;;;10.13;;
10170;SDS011;5127;50.922;6.988;2022-12-17T10:14:57;14.77;;;10.07;;
10170;SDS011;5127;50.922;6.988;2022-12-17T10:17:42;16.17;;;9.53;;
10170;SDS011;5127;50.922;6.988;2022-12-17T10:20:28;16.47;;;9.43;;
10170;SDS011;5127;50.922;6.988;2022-12-17T10:23:23;14.33;;;9.33;;
10170;SDS011;5127;50.922;6.988;2022-12-17T10:26:12;14.57;;;9.20;;
10170;SDS011;5127;50.922;6.988;2022-12-17T10:29:05;18.47;;;10.03;;
10170;SDS011;5127;50.922;6.988;2022-12-17T10:31:54;21.47;;;10.23;;
10170;SDS011;5127;50.922;6.988;2022-12-17T10:34:43;16.97;;;10.00;;
10170;SDS011;5127;50.922;6.988;2022-12-17T10:37:29;15.63;;;9.40;;
10170;SDS011;5127;50.922;6.988;2022-12-17T10:40:19;18.30;;;10.37;;
10170;SDS011;5127;50.922;6.988;2022-12-17T10:43:22;16.07;;;10.23;;
10170;SDS011;5127;50.922;6.988;2022-12-17T10:46:22;17.77;;;9.87;;
10170;SDS011;5127;50.922;6.988;2022-12-17T10:49:12;16.63;;;10.23;;
10170;SDS011;5127;50.922;6.988;2022-12-17T10:51:59;17.10;;;10.70;;
10170;SDS011;5127;50.922;6.988;2022-12-17T10:54:53;16.37;;;10.07;;
10170;SDS011;5127;50.922;6.988;2022-12-17T10:57:40;13.90;;;9.33;;
10170;SDS011;5127;50.922;6.988;2022-12-17T11:00:26;17.23;;;9.97;;
10170;SDS011;5127;50.922;6.988;2022-12-17T11:03:25;17.07;;;10.37;;
10170;SDS011;5127;50.922;6.988;2022-12-17T11:06:12;18.90;;;11.50;;
10170;SDS011;5127;50.922;6.988;2022-12-17T11:08:59;16.07;;;10.03;;
10170;SDS011;5127;50.922;6.988;2022-12-17T11:11:45;17.67;;;10.93;;
10170;SDS011;5127;50.922;6.988;2022-12-17T11:14:31;17.70;;;10.43;;
10170;SDS011;5127;50.922;6.988;2022-12-17T11:17:23;16.63;;;10.23;;
10170;SDS011;5127;50.922;6.988;2022-12-17T11:20:16;19.13;;;10.43;;
10170;SDS011;5127;50.922;6.988;2022-12-17T11:23:07;19.33;;;10.63;;
10170;SDS011;5127;50.922;6.988;2022-12-17T11:26:02;18.80;;;11.50;;
10170;SDS011;5127;50.922;6.988;2022-12-17T11:28:49;19.27;;;11.30;;
10170;SDS011;5127;50.922;6.988;2022-12-17T11:31:38;19.27;;;11.00;;
10170;SDS011;5127;50.922;6.988;2022-12-17T11:34:34;22.50;;;12.37;;
10170;SDS011;5127;50.922;6.988;2022-12-17T11:37:32;21.00;;;11.93;;
10170;SDS011;5127;50.922;6.988;2022-12-17T11:40:24;18.93;;;11.37;;
10170;SDS011;5127;50.922;6.988;2022-12-17T11:43:18;21.53;;;11.63;;
10170;SDS011;5127;50.922;6.988;2022-12-17T11:46:10;21.30;;;11.90;;
10170;SDS011;5127;50.922;6.988;2022-12-17T11:49:02;20.97;;;11.03;;
10170;SDS011;5127;50.922;6.988;2022-12-17T11:51:55;19.70;;;11.63;;
10170;SDS011;5127;50.922;6.988;2022-12-17T11:54:53;21.80;;;12.90;;
10170;SDS011;5127;50.922;6.988;2022-12-17T11:57:45;21.03;;;11.83;;
10170;SDS011;5127;50.922;6.988;2022-12-17T12:00:41;23.23;;;12.13;;
10170;SDS011;5127;50.922;6.988;2022-12-17T12:03:36;21.53;;;12.93;;
10170;SDS011;5127;50.922;6.988;2022-12-17T12:06:33;19.93;;;12.20;;
10170;SDS011;5127;50.922;6.988;2022-12-17T12:09:27;21.10;;;12.40;;
10170;SDS011;5127;50.922;6.988;2022-12-17T12:12:21;21.03;;;12.30;;
10170;SDS011;5127;50.922;6.988;2022-12-17T12:15:21;19.97;;;11.70;;
10170;SDS011;5127;50.922;6.988;2022-12-17T12:18:14;19.83;;;11.23;;
10170;SDS011;5127;50.922;6.988;2022-12-17T12:21:09;19.87;;;11.80;;
10170;SDS011;5127;50.922;6.988;2022-12-17T12:24:10;18.67;;;11.30;;
10170;SDS011;5127;50.922;6.988;2022-12-17T12:27:11;20.00;;;11.47;;
10170;SDS011;5127;50.922;6.988;2022-12-17T12:30:08;19.97;;;10.93;;
10170;SDS011;5127;50.922;6.988;2022-12-17T12:32:58;19.07;;;11.67;;
10170;SDS011;5127;50.922;6.988;2022-12-17T12:35:57;18.97;;;11.27;;
10170;SDS011;5127;50.922;6.988;2022-12-17T12:38:50;21.33;;;11.37;;
10170;SDS011;5127;50.922;6.988;2022-12-17T12:41:38;19.17;;;11.40;;
10170;SDS011;5127;50.922;6.988;2022-12-17T12:44:27;19.33;;;12.27;;
10170;SDS011;5127;50.922;6.988;2022-12-17T12:47:20;19.10;;;12.13;;
10170;SDS011;5127;50.922;6.988;2022-12-17T12:50:13;19.63;;;12.43;;
10170;SDS011;5127;50.922;6.988;2022-12-17T12:53:03;21.20;;;12.63;;
10170;SDS011;5127;50.922;6.988;2022-12-17T12:55:50;19.70;;;12.37;;
10170;SDS011;5127;50.922;6.988;2022-12-17T12:58:37;18.27;;;11.07;;
10170;SDS011;5127;50.922;6.988;2022-12-17T13:01:30;20.27;;;12.37;;
10170;SDS011;5127;50.922;6.988;2022-12-17T13:04:23;19.00;;;11.00;;
10170;SDS011;5127;50.922;6.988;2022-12-17T13:07:19;18.47;;;11.00;;
10170;SDS011;5127;50.922;6.988;2022-12-17T13:09:49;17.10;;;11.03;;
10170;SDS011;5127;50.922;6.988;2022-12-17T13:12:19;18.27;;;11.03;;
10170;SDS011;5127;50.922;6.988;2022-12-17T13:14:57;19.30;;;11.30;;
10170;SDS011;5127;50.922;6.988;2022-12-17T13:17:35;20.83;;;11.67;;
10170;SDS011;5127;50.922;6.988;2022-12-17T13:20:28;18.87;;;11.83;;
10170;SDS011;5127;50.922;6.988;2022-12-17T13:23:04;20.50;;;12.17;;
10170;SDS011;5127;50.922;6.988;2022-12-17T13:25:43;20.73;;;11.67;;
10170;SDS011;5127;50.922;6.988;2022-12-17T13:28:24;20.53;;;12.40;;
10170;SDS011;5127;50.922;6.988;2022-12-17T13:30:59;20.40;;;12.03;;
10170;SDS011;5127;50.922;6.988;2022-12-17T13:33:28;17.43;;;11.30;;
10170;SDS011;5127;50.922;6.988;2022-12-17T13:36:05;21.03;;;12.33;;
10170;SDS011;5127;50.922;6.988;2022-12-17T13:38:41;18.83;;;11.80;;
10170;SDS011;5127;50.922;6.988;2022-12-17T13:41:16;18.60;;;12.70;;
10170;SDS011;5127;50.922;6.988;2022-12-17T13:43:47;19.53;;;12.23;;
10170;SDS011;5127;50.922;6.988;2022-12-17T13:46:18;22.60;;;13.17;;
10170;SDS011;5127;50.922;6.988;2022-12-17T13:48:53;18.90;;;11.80;;
10170;SDS011;5127;50.922;6.988;2022-12-17T13:51:25;20.93;;;12.40;;
10170;SDS011;5127;50.922;6.988;2022-12-17T13:53:54;20.23;;;12.67;;
10170;SDS011;5127;50.922;6.988;2022-12-17T13:56:23;18.70;;;11.60;;
10170;SDS011;5127;50.922;6.988;2022-12-17T13:58:52;17.83;;;11.70;;
10170;SDS011;5127;50.922;6.988;2022-12-17T14:01:21;18.53;;;11.17;;
10170;SDS011;5127;50.922;6.988;2022-12-17T14:03:51;17.97;;;11.37;;
10170;SDS011;5127;50.922;6.988;2022-12-17T14:06:19;17.83;;;11.00;;
10170;SDS011;5127;50.922;6.988;2022-12-17T14:08:51;20.67;;;13.00;;
10170;SDS011;5127;50.922;6.988;2022-12-17T14:11:20;20.83;;;12.60;;
10170;SDS011;5127;50.922;6.988;2022-12-17T14:14:07;19.07;;;12.00;;
10170;SDS011;5127;50.922;6.988;2022-12-17T14:16:42;19.37;;;11.97;;
10170;SDS011;5127;50.922;6.988;2022-12-17T14:19:10;21.77;;;13.17;;
10170;SDS011;5127;50.922;6.988;2022-12-17T14:21:38;19.77;;;11.80;;
10170;SDS011;5127;50.922;6.988;2022-12-17T14:24:08;21.07;;;12.37;;
10170;SDS011;5127;50.922;6.988;2022-12-17T14:26:46;23.77;;;12.87;;
10170;SDS011;5127;50.922;6.988;2022-12-17T14:29:19;18.73;;;12.50;;
10170;SDS011;5127;50.922;6.988;2022-12-17T14:31:52;21.40;;;12.73;;
10170;SDS011;5127;50.922;6.988;2022-12-17T14:34:21;23.73;;;14.27;;
10170;SDS011;5127;50.922;6.988;2022-12-17T14:36:53;19.37;;;12.10;;
10170;SDS011;5127;50.922;6.988;2022-12-17T14:39:24;21.07;;;13.20;;
10170;SDS011;5127;50.922;6.988;2022-12-17T14:41:55;22.63;;;12.67;;
10170;SDS011;5127;50.922;6.988;2022-12-17T14:44:52;23.90;;;13.97;;
10170;SDS011;5127;50.922;6.988;2022-12-17T14:47:21;19.63;;;12.23;;
10170;SDS011;5127;50.922;6.988;2022-12-17T14:50:01;21.60;;;13.03;;
10170;SDS011;5127;50.922;6.988;2022-12-17T14:52:32;21.90;;;12.77;;
10170;SDS011;5127;50.922;6.988;2022-12-17T14:55:25;19.23;;;12.03;;
10170;SDS011;5127;50.922;6.988;2022-12-17T14:58:13;19.23;;;11.90;;
10170;SDS011;5127;50.922;6.988;2022-12-17T15:00:43;17.77;;;11.37;;
10170;SDS011;5127;50.922;6.988;2022-12-17T15:03:14;20.43;;;12.07;;
10170;SDS011;5127;50.922;6.988;2022-12-17T15:05:44;19.20;;;12.17;;
10170;SDS011;5127;50.922;6.988;2022-12-17T15:08:15;18.37;;;12.00;;
10170;SDS011;5127;50.922;6.988;2022-12-17T15:10:44;21.83;;;12.00;;
10170;SDS011;5127;50.922;6.988;2022-12-17T15:13:11;19.20;;;12.10;;
10170;SDS011;5127;50.922;6.988;2022-12-17T15:15:39;17.83;;;11.73;;
10170;SDS011;5127;50.922;6.988;2022-12-17T15:18:06;20.90;;;12.77;;
10170;SDS011;5127;50.922;6.988;2022-12-17T15:20:33;22.87;;;13.30;;
10170;SDS011;5127;50.922;6.988;2022-12-17T15:23:01;19.50;;;11.73;;
10170;SDS011;5127;50.922;6.988;2022-12-17T15:25:29;18.83;;;12.60;;
10170;SDS011;5127;50.922;6.988;2022-12-17T15:27:58;20.23;;;11.63;;
10170;SDS011;5127;50.922;6.988;2022-12-17T15:30:25;19.37;;;12.40;;
10170;SDS011;5127;50.922;6.988;2022-12-17T15:32:52;19.33;;;12.03;;
10170;SDS011;5127;50.922;6.988;2022-12-17T15:35:19;19.73;;;11.93;;
10170;SDS011;5127;50.922;6.988;2022-12-17T15:37:47;19.40;;;11.50;;
10170;SDS011;5127;50.922;6.988;2022-12-17T15:40:14;19.03;;;11.73;;
10170;SDS011;5127;50.922;6.988;2022-12-17T15:42:41;17.93;;;11.50;;
10170;SDS011;5127;50.922;6.988;2022-12-17T15:45:28;20.17;;;11.77;;
10170;SDS011;5127;50.922;6.988;2022-12-17T15:47:56;18.10;;;11.87;;
10170;SDS011;5127;50.922;6.988;2022-12-17T15:50:23;17.57;;;12.03;;
10170;SDS011;5127;50.922;6.988;2022-12-17T15:52:51;17.97;;;11.67;;
10170;SDS011;5127;50.922;6.988;2022-12-17T15:55:18;18.40;;;11.57;;
10170;SDS011;5127;50.922;6.988;2022-12-17T15:57:45;19.83;;;12.00;;
10170;SDS011;5127;50.922;6.988;2022-12-17T16:00:13;21.50;;;13.03;;
10170;SDS011;5127;50.922;6.988;2022-12-17T16:02:42;22.00;;;11.90;;
10170;SDS011;5127;50.922;6.988;2022-12-17T16:05:09;20.33;;;11.83;;
10170;SDS011;5127;50.922;6.988;2022-12-17T16:07:37;22.30;;;12.17;;
10170;SDS011;5127;50.922;6.988;2022-12-17T16:10:05;27.03;;;14.23;;
10170;SDS011;5127;50.922;6.988;2022-12-17T16:12:32;127.87;;;40.20;;
10170;SDS011;5127;50.922;6.988;2022-12-17T16:15:00;89.90;;;28.97;;
10170;SDS011;5127;50.922;6.988;2022-12-17T16:17:27;80.13;;;29.00;;
10170;SDS011;5127;50.922;6.988;2022-12-17T16:19:56;66.43;;;25.10;;